sensor_id;sensor_type;location;lat;lon;timestamp;P1;durP1;ratioP1;P2;durP2;ratioP2
6109;SDS011;3085;49.444;11.054;2023-11-21T00:01:58;3.10;;;1.73;;
6109;SDS011;3085;49.444;11.054;2023-11-21T00:04:25;10.33;;;2.20;;
6109;SDS011;3085;49.444;11.054;2023-11-21T00:06:55;3.17;;;1.60;;
6109;SDS011;3085;49.444;11.054;2023-11-21T00:09:21;2.23;;;1.50;;
6109;SDS011;3085;49.444;11.054;2023-11-21T00:11:48;3.17;;;1.60;;
6109;SDS011;3085;49.444;11.054;2023-11-21T00:14:15;3.67;;;1.80;;
6109;SDS011;3085;49.444;11.054;2023-11-21T00:16:42;3.83;;;1.67;;
6109;SDS011;3085;49.444;11.054;2023-11-21T00:19:09;2.73;;;1.67;;
6109;SDS011;3085;49.444;11.054;2023-11-21T00:21:36;3.27;;;1.70;;
6109;SDS011;3085;49.444;11.054;2023-11-21T00:24:04;7.17;;;2.00;;
6109;SDS011;3085;49.444;11.054;2023-11-21T00:26:32;1.97;;;1.40;;
6109;SDS011;3085;49.444;11.054;2023-11-21T00:29:01;1.83;;;1.20;;
6109;SDS011;3085;49.444;11.054;2023-11-21T00:31:28;3.50;;;1.50;;
6109;SDS011;3085;49.444;11.054;2023-11-21T00:33:55;1.60;;;1.37;;
6109;SDS011;3085;49.444;11.054;2023-11-21T00:36:22;2.73;;;1.33;;
6109;SDS011;3085;49.444;11.054;2023-11-21T00:38:50;3.40;;;1.60;;
6109;SDS011;3085;49.444;11.054;2023-11-21T00:41:19;3.00;;;1.40;;
6109;SDS011;3085;49.444;11.054;2023-11-21T00:43:45;5.33;;;2.17;;
6109;SDS011;3085;49.444;11.054;2023-11-21T00:46:12;2.93;;;1.50;;
6109;SDS011;3085;49.444;11.054;2023-11-21T00:48:39;2.57;;;1.73;;
6109;SDS011;3085;49.444;11.054;2023-11-21T00:51:06;3.37;;;1.73;;
6109;SDS011;3085;49.444;11.054;2023-11-21T00:53:32;5.87;;;2.53;;
6109;SDS011;3085;49.444;11.054;2023-11-21T00:55:59;3.60;;;1.83;;
6109;SDS011;3085;49.444;11.054;2023-11-21T00:58:27;2.80;;;2.13;;
6109;SDS011;3085;49.444;11.054;2023-11-21T01:00:55;6.37;;;2.23;;
6109;SDS011;3085;49.444;11.054;2023-11-21T01:03:22;4.13;;;1.80;;
6109;SDS011;3085;49.444;11.054;2023-11-21T01:05:49;4.50;;;1.73;;
6109;SDS011;3085;49.444;11.054;2023-11-21T01:08:16;3.50;;;1.83;;
6109;SDS011;3085;49.444;11.054;2023-11-21T01:10:43;3.03;;;1.90;;
6109;SDS011;3085;49.444;11.054;2023-11-21T01:13:10;2.07;;;1.50;;
6109;SDS011;3085;49.444;11.054;2023-11-21T01:15:38;3.53;;;1.70;;
6109;SDS011;3085;49.444;11.054;2023-11-21T01:18:05;3.93;;;2.00;;
6109;SDS011;3085;49.444;11.054;2023-11-21T01:20:32;3.73;;;1.93;;
6109;SDS011;3085;49.444;11.054;2023-11-21T01:22:59;12.73;;;4.53;;
6109;SDS011;3085;49.444;11.054;2023-11-21T01:25:26;13.93;;;2.87;;
6109;SDS011;3085;49.444;11.054;2023-11-21T01:27:52;3.47;;;2.07;;
6109;SDS011;3085;49.444;11.054;2023-11-21T01:30:19;3.13;;;1.57;;
6109;SDS011;3085;49.444;11.054;2023-11-21T01:32:48;2.40;;;1.70;;
6109;SDS011;3085;49.444;11.054;2023-11-21T01:35:15;5.93;;;2.03;;
6109;SDS011;3085;49.444;11.054;2023-11-21T01:37:42;3.30;;;1.90;;
6109;SDS011;3085;49.444;11.054;2023-11-21T01:40:09;1.83;;;1.37;;
6109;SDS011;3085;49.444;11.054;2023-11-21T01:42:38;4.00;;;1.80;;
6109;SDS011;3085;49.444;11.054;2023-11-21T01:45:06;2.70;;;1.60;;
6109;SDS011;3085;49.444;11.054;2023-11-21T01:47:34;21.17;;;4.80;;
6109;SDS011;3085;49.444;11.054;2023-11-21T01:50:03;4.97;;;2.27;;
6109;SDS011;3085;49.444;11.054;2023-11-21T01:52:32;13.57;;;3.33;;
6109;SDS011;3085;49.444;11.054;2023-11-21T01:55:00;28.40;;;4.27;;
6109;SDS011;3085;49.444;11.054;2023-11-21T01:57:28;12.80;;;4.73;;
6109;SDS011;3085;49.444;11.054;2023-11-21T01:59:55;33.60;;;8.37;;
6109;SDS011;3085;49.444;11.054;2023-11-21T02:02:24;22.90;;;6.27;;
6109;SDS011;3085;49.444;11.054;2023-11-21T02:04:51;36.13;;;8.40;;
6109;SDS011;3085;49.444;11.054;2023-11-21T02:07:19;10.60;;;3.53;;
6109;SDS011;3085;49.444;11.054;2023-11-21T02:09:48;19.40;;;4.53;;
6109;SDS011;3085;49.444;11.054;2023-11-21T02:12:15;5.87;;;2.40;;
6109;SDS011;3085;49.444;11.054;2023-11-21T02:14:42;15.33;;;4.93;;
6109;SDS011;3085;49.444;11.054;2023-11-21T02:17:09;10.67;;;3.00;;
6109;SDS011;3085;49.444;11.054;2023-11-21T02:19:38;24.93;;;8.30;;
6109;SDS011;3085;49.444;11.054;2023-11-21T02:22:04;15.87;;;3.43;;
6109;SDS011;3085;49.444;11.054;2023-11-21T02:24:34;10.23;;;4.93;;
6109;SDS011;3085;49.444;11.054;2023-11-21T02:27:01;14.10;;;5.70;;
6109;SDS011;3085;49.444;11.054;2023-11-21T02:29:28;8.97;;;3.83;;
6109;SDS011;3085;49.444;11.054;2023-11-21T02:31:55;3.87;;;1.87;;
6109;SDS011;3085;49.444;11.054;2023-11-21T02:34:22;4.40;;;1.57;;
6109;SDS011;3085;49.444;11.054;2023-11-21T02:36:49;2.33;;;1.93;;
6109;SDS011;3085;49.444;11.054;2023-11-21T02:39:16;5.40;;;1.50;;
6109;SDS011;3085;49.444;11.054;2023-11-21T02:41:48;2.00;;;1.50;;
6109;SDS011;3085;49.444;11.054;2023-11-21T02:44:15;2.50;;;1.50;;
6109;SDS011;3085;49.444;11.054;2023-11-21T02:46:41;6.90;;;1.80;;
6109;SDS011;3085;49.444;11.054;2023-11-21T02:49:08;2.20;;;1.60;;
6109;SDS011;3085;49.444;11.054;2023-11-21T02:51:35;7.10;;;3.97;;
6109;SDS011;3085;49.444;11.054;2023-11-21T02:54:03;5.13;;;2.53;;
6109;SDS011;3085;49.444;11.054;2023-11-21T02:56:31;2.90;;;1.57;;
6109;SDS011;3085;49.444;11.054;2023-11-21T02:59:00;1.60;;;1.40;;
6109;SDS011;3085;49.444;11.054;2023-11-21T03:01:27;2.90;;;1.93;;
6109;SDS011;3085;49.444;11.054;2023-11-21T03:03:54;5.27;;;1.80;;
6109;SDS011;3085;49.444;11.054;2023-11-21T03:06:21;1.87;;;1.47;;
6109;SDS011;3085;49.444;11.054;2023-11-21T03:08:48;2.83;;;2.00;;
6109;SDS011;3085;49.444;11.054;2023-11-21T03:11:15;3.30;;;1.60;;
6109;SDS011;3085;49.444;11.054;2023-11-21T03:13:42;4.80;;;1.60;;
6109;SDS011;3085;49.444;11.054;2023-11-21T03:16:11;2.23;;;1.60;;
6109;SDS011;3085;49.444;11.054;2023-11-21T03:18:38;6.80;;;2.53;;
6109;SDS011;3085;49.444;11.054;2023-11-21T03:21:05;2.20;;;1.60;;
6109;SDS011;3085;49.444;11.054;2023-11-21T03:23:33;2.90;;;1.40;;
6109;SDS011;3085;49.444;11.054;2023-11-21T03:26:00;3.33;;;2.07;;
6109;SDS011;3085;49.444;11.054;2023-11-21T03:28:27;5.00;;;1.80;;
6109;SDS011;3085;49.444;11.054;2023-11-21T03:30:55;5.93;;;1.90;;
6109;SDS011;3085;49.444;11.054;2023-11-21T03:33:23;3.10;;;1.77;;
6109;SDS011;3085;49.444;11.054;2023-11-21T03:35:50;3.00;;;1.63;;
6109;SDS011;3085;49.444;11.054;2023-11-21T03:38:17;1.80;;;1.33;;
6109;SDS011;3085;49.444;11.054;2023-11-21T03:40:45;1.47;;;1.37;;
6109;SDS011;3085;49.444;11.054;2023-11-21T03:43:12;3.57;;;1.63;;
6109;SDS011;3085;49.444;11.054;2023-11-21T03:45:39;2.30;;;1.47;;
6109;SDS011;3085;49.444;11.054;2023-11-21T03:48:05;2.80;;;1.67;;
6109;SDS011;3085;49.444;11.054;2023-11-21T03:50:34;5.57;;;1.83;;
6109;SDS011;3085;49.444;11.054;2023-11-21T03:53:01;5.10;;;2.17;;
6109;SDS011;3085;49.444;11.054;2023-11-21T03:55:28;5.73;;;2.20;;
6109;SDS011;3085;49.444;11.054;2023-11-21T03:57:56;2.10;;;1.50;;
6109;SDS011;3085;49.444;11.054;2023-11-21T04:00:23;3.90;;;1.77;;
6109;SDS011;3085;49.444;11.054;2023-11-21T04:02:51;7.43;;;2.20;;
6109;SDS011;3085;49.444;11.054;2023-11-21T04:05:19;6.90;;;2.03;;
6109;SDS011;3085;49.444;11.054;2023-11-21T04:07:47;2.07;;;1.43;;
6109;SDS011;3085;49.444;11.054;2023-11-21T04:10:14;2.13;;;1.43;;
6109;SDS011;3085;49.444;11.054;2023-11-21T04:12:41;1.73;;;1.30;;
6109;SDS011;3085;49.444;11.054;2023-11-21T04:15:08;6.30;;;1.43;;
6109;SDS011;3085;49.444;11.054;2023-11-21T04:17:36;2.03;;;1.40;;
6109;SDS011;3085;49.444;11.054;2023-11-21T04:20:03;2.17;;;1.43;;
6109;SDS011;3085;49.444;11.054;2023-11-21T04:22:33;5.63;;;2.03;;
6109;SDS011;3085;49.444;11.054;2023-11-21T04:25:03;4.70;;;1.80;;
6109;SDS011;3085;49.444;11.054;2023-11-21T04:27:30;2.77;;;1.60;;
6109;SDS011;3085;49.444;11.054;2023-11-21T04:29:57;2.20;;;1.27;;
6109;SDS011;3085;49.444;11.054;2023-11-21T04:32:24;3.30;;;1.50;;
6109;SDS011;3085;49.444;11.054;2023-11-21T04:34:50;1.87;;;1.50;;
6109;SDS011;3085;49.444;11.054;2023-11-21T04:37:17;2.93;;;1.50;;
6109;SDS011;3085;49.444;11.054;2023-11-21T04:39:44;1.70;;;1.30;;
6109;SDS011;3085;49.444;11.054;2023-11-21T04:42:12;4.00;;;1.97;;
6109;SDS011;3085;49.444;11.054;2023-11-21T04:44:38;3.17;;;1.70;;
6109;SDS011;3085;49.444;11.054;2023-11-21T04:47:06;3.83;;;1.50;;
6109;SDS011;3085;49.444;11.054;2023-11-21T04:49:32;3.00;;;1.60;;
6109;SDS011;3085;49.444;11.054;2023-11-21T04:52:02;2.37;;;1.80;;
6109;SDS011;3085;49.444;11.054;2023-11-21T04:54:30;3.97;;;1.83;;
6109;SDS011;3085;49.444;11.054;2023-11-21T04:56:57;4.50;;;1.83;;
6109;SDS011;3085;49.444;11.054;2023-11-21T04:59:25;1.57;;;1.30;;
6109;SDS011;3085;49.444;11.054;2023-11-21T05:01:52;2.83;;;1.60;;
6109;SDS011;3085;49.444;11.054;2023-11-21T05:04:19;3.37;;;1.60;;
6109;SDS011;3085;49.444;11.054;2023-11-21T05:06:47;1.80;;;1.50;;
6109;SDS011;3085;49.444;11.054;2023-11-21T05:09:14;7.27;;;1.53;;
6109;SDS011;3085;49.444;11.054;2023-11-21T05:11:41;3.20;;;2.33;;
6109;SDS011;3085;49.444;11.054;2023-11-21T05:14:08;3.27;;;1.80;;
6109;SDS011;3085;49.444;11.054;2023-11-21T05:16:36;8.43;;;1.60;;
6109;SDS011;3085;49.444;11.054;2023-11-21T05:19:03;4.37;;;1.90;;
6109;SDS011;3085;49.444;11.054;2023-11-21T05:21:30;3.13;;;1.83;;
6109;SDS011;3085;49.444;11.054;2023-11-21T05:23:57;10.40;;;1.60;;
6109;SDS011;3085;49.444;11.054;2023-11-21T05:26:24;5.30;;;1.80;;
6109;SDS011;3085;49.444;11.054;2023-11-21T05:28:51;7.10;;;1.93;;
6109;SDS011;3085;49.444;11.054;2023-11-21T05:31:18;2.23;;;1.67;;
6109;SDS011;3085;49.444;11.054;2023-11-21T05:33:46;3.00;;;1.93;;
6109;SDS011;3085;49.444;11.054;2023-11-21T05:36:13;4.57;;;1.60;;
6109;SDS011;3085;49.444;11.054;2023-11-21T05:38:40;2.50;;;1.60;;
6109;SDS011;3085;49.444;11.054;2023-11-21T05:41:06;3.47;;;2.17;;
6109;SDS011;3085;49.444;11.054;2023-11-21T05:43:36;5.10;;;2.47;;
6109;SDS011;3085;49.444;11.054;2023-11-21T05:46:02;2.17;;;1.63;;
6109;SDS011;3085;49.444;11.054;2023-11-21T05:48:29;2.40;;;1.70;;
6109;SDS011;3085;49.444;11.054;2023-11-21T05:50:57;1.80;;;1.50;;
6109;SDS011;3085;49.444;11.054;2023-11-21T05:53:24;2.33;;;1.87;;
6109;SDS011;3085;49.444;11.054;2023-11-21T05:55:51;3.30;;;2.10;;
6109;SDS011;3085;49.444;11.054;2023-11-21T05:58:18;4.03;;;2.40;;
6109;SDS011;3085;49.444;11.054;2023-11-21T06:00:44;4.37;;;2.17;;
6109;SDS011;3085;49.444;11.054;2023-11-21T06:03:11;3.40;;;1.77;;
6109;SDS011;3085;49.444;11.054;2023-11-21T06:05:38;2.20;;;1.80;;
6109;SDS011;3085;49.444;11.054;2023-11-21T06:08:06;4.30;;;2.67;;
6109;SDS011;3085;49.444;11.054;2023-11-21T06:10:33;5.17;;;2.60;;
6109;SDS011;3085;49.444;11.054;2023-11-21T06:13:00;6.17;;;2.53;;
6109;SDS011;3085;49.444;11.054;2023-11-21T06:15:29;6.20;;;2.23;;
6109;SDS011;3085;49.444;11.054;2023-11-21T06:17:55;3.93;;;2.10;;
6109;SDS011;3085;49.444;11.054;2023-11-21T06:20:22;4.23;;;2.20;;
6109;SDS011;3085;49.444;11.054;2023-11-21T06:22:49;7.00;;;3.20;;
6109;SDS011;3085;49.444;11.054;2023-11-21T06:25:18;8.10;;;2.97;;
6109;SDS011;3085;49.444;11.054;2023-11-21T06:27:45;4.60;;;2.13;;
6109;SDS011;3085;49.444;11.054;2023-11-21T06:30:13;6.63;;;2.33;;
6109;SDS011;3085;49.444;11.054;2023-11-21T06:32:41;5.53;;;3.03;;
6109;SDS011;3085;49.444;11.054;2023-11-21T06:35:10;3.67;;;2.20;;
6109;SDS011;3085;49.444;11.054;2023-11-21T06:37:38;14.10;;;2.70;;
6109;SDS011;3085;49.444;11.054;2023-11-21T06:40:05;7.90;;;2.43;;
6109;SDS011;3085;49.444;11.054;2023-11-21T06:42:35;21.67;;;6.80;;
6109;SDS011;3085;49.444;11.054;2023-11-21T06:45:03;7.87;;;3.57;;
6109;SDS011;3085;49.444;11.054;2023-11-21T06:47:30;17.03;;;2.90;;
6109;SDS011;3085;49.444;11.054;2023-11-21T06:49:58;8.23;;;2.40;;
6109;SDS011;3085;49.444;11.054;2023-11-21T06:52:25;5.40;;;2.50;;
6109;SDS011;3085;49.444;11.054;2023-11-21T06:54:52;4.27;;;2.40;;
6109;SDS011;3085;49.444;11.054;2023-11-21T06:57:19;7.40;;;2.97;;
6109;SDS011;3085;49.444;11.054;2023-11-21T06:59:48;3.77;;;2.10;;
6109;SDS011;3085;49.444;11.054;2023-11-21T07:02:15;8.13;;;2.40;;
6109;SDS011;3085;49.444;11.054;2023-11-21T07:04:43;4.80;;;2.70;;
6109;SDS011;3085;49.444;11.054;2023-11-21T07:07:10;7.57;;;3.03;;
6109;SDS011;3085;49.444;11.054;2023-11-21T07:09:36;4.60;;;2.47;;
6109;SDS011;3085;49.444;11.054;2023-11-21T07:12:03;4.17;;;2.20;;
6109;SDS011;3085;49.444;11.054;2023-11-21T07:14:32;6.70;;;2.60;;
6109;SDS011;3085;49.444;11.054;2023-11-21T07:17:00;4.80;;;2.50;;
6109;SDS011;3085;49.444;11.054;2023-11-21T07:19:27;7.90;;;2.80;;
6109;SDS011;3085;49.444;11.054;2023-11-21T07:21:54;5.03;;;2.47;;
6109;SDS011;3085;49.444;11.054;2023-11-21T07:24:20;5.57;;;2.40;;
6109;SDS011;3085;49.444;11.054;2023-11-21T07:26:47;3.73;;;2.57;;
6109;SDS011;3085;49.444;11.054;2023-11-21T07:29:14;5.20;;;2.60;;
6109;SDS011;3085;49.444;11.054;2023-11-21T07:31:41;5.17;;;2.80;;
6109;SDS011;3085;49.444;11.054;2023-11-21T07:34:09;3.83;;;2.47;;
6109;SDS011;3085;49.444;11.054;2023-11-21T07:36:37;4.70;;;2.30;;
6109;SDS011;3085;49.444;11.054;2023-11-21T07:39:03;2.53;;;2.10;;
6109;SDS011;3085;49.444;11.054;2023-11-21T07:41:31;4.33;;;2.00;;
6109;SDS011;3085;49.444;11.054;2023-11-21T07:43:58;6.60;;;2.70;;
6109;SDS011;3085;49.444;11.054;2023-11-21T07:46:25;7.03;;;2.47;;
6109;SDS011;3085;49.444;11.054;2023-11-21T07:48:52;4.33;;;2.70;;
6109;SDS011;3085;49.444;11.054;2023-11-21T07:51:21;5.10;;;2.33;;
6109;SDS011;3085;49.444;11.054;2023-11-21T07:53:48;5.73;;;2.40;;
6109;SDS011;3085;49.444;11.054;2023-11-21T07:56:15;4.40;;;2.50;;
6109;SDS011;3085;49.444;11.054;2023-11-21T07:58:42;4.23;;;2.30;;
6109;SDS011;3085;49.444;11.054;2023-11-21T08:01:09;7.53;;;2.77;;
6109;SDS011;3085;49.444;11.054;2023-11-21T08:03:36;8.03;;;3.27;;
6109;SDS011;3085;49.444;11.054;2023-11-21T08:06:03;4.53;;;2.60;;
6109;SDS011;3085;49.444;11.054;2023-11-21T08:08:32;6.03;;;3.40;;
6109;SDS011;3085;49.444;11.054;2023-11-21T08:10:59;5.43;;;2.53;;
6109;SDS011;3085;49.444;11.054;2023-11-21T08:13:27;4.13;;;2.50;;
6109;SDS011;3085;49.444;11.054;2023-11-21T08:15:56;4.53;;;2.60;;
6109;SDS011;3085;49.444;11.054;2023-11-21T08:18:26;4.97;;;2.77;;
6109;SDS011;3085;49.444;11.054;2023-11-21T08:20:54;4.40;;;2.67;;
6109;SDS011;3085;49.444;11.054;2023-11-21T08:23:21;8.67;;;3.83;;
6109;SDS011;3085;49.444;11.054;2023-11-21T08:25:51;6.17;;;3.40;;
6109;SDS011;3085;49.444;11.054;2023-11-21T08:28:19;4.90;;;2.40;;
6109;SDS011;3085;49.444;11.054;2023-11-21T08:30:47;5.43;;;2.80;;
6109;SDS011;3085;49.444;11.054;2023-11-21T08:33:14;5.30;;;2.80;;
6109;SDS011;3085;49.444;11.054;2023-11-21T08:35:40;7.57;;;3.40;;
6109;SDS011;3085;49.444;11.054;2023-11-21T08:38:07;5.20;;;3.00;;
6109;SDS011;3085;49.444;11.054;2023-11-21T08:40:35;4.73;;;2.80;;
6109;SDS011;3085;49.444;11.054;2023-11-21T08:43:03;7.80;;;3.27;;
6109;SDS011;3085;49.444;11.054;2023-11-21T08:45:30;5.47;;;3.13;;
6109;SDS011;3085;49.444;11.054;2023-11-21T08:47:59;7.70;;;3.00;;
6109;SDS011;3085;49.444;11.054;2023-11-21T08:50:25;9.43;;;3.83;;
6109;SDS011;3085;49.444;11.054;2023-11-21T08:52:53;5.40;;;3.00;;
6109;SDS011;3085;49.444;11.054;2023-11-21T08:55:20;5.80;;;3.23;;
6109;SDS011;3085;49.444;11.054;2023-11-21T08:57:47;5.50;;;3.10;;
6109;SDS011;3085;49.444;11.054;2023-11-21T09:00:16;5.53;;;3.00;;
6109;SDS011;3085;49.444;11.054;2023-11-21T09:02:43;10.13;;;3.47;;
6109;SDS011;3085;49.444;11.054;2023-11-21T09:05:11;4.20;;;2.80;;
6109;SDS011;3085;49.444;11.054;2023-11-21T09:07:40;6.23;;;3.40;;
6109;SDS011;3085;49.444;11.054;2023-11-21T09:10:08;9.33;;;4.90;;
6109;SDS011;3085;49.444;11.054;2023-11-21T09:12:35;7.40;;;4.27;;
6109;SDS011;3085;49.444;11.054;2023-11-21T09:15:03;10.50;;;4.97;;
6109;SDS011;3085;49.444;11.054;2023-11-21T09:17:32;6.80;;;3.97;;
6109;SDS011;3085;49.444;11.054;2023-11-21T09:20:00;7.50;;;4.20;;
6109;SDS011;3085;49.444;11.054;2023-11-21T09:22:28;6.90;;;4.50;;
6109;SDS011;3085;49.444;11.054;2023-11-21T09:24:56;7.53;;;4.53;;
6109;SDS011;3085;49.444;11.054;2023-11-21T09:27:24;10.57;;;5.07;;
6109;SDS011;3085;49.444;11.054;2023-11-21T09:29:51;11.73;;;4.73;;
6109;SDS011;3085;49.444;11.054;2023-11-21T09:32:19;10.43;;;4.93;;
6109;SDS011;3085;49.444;11.054;2023-11-21T09:34:47;10.50;;;5.07;;
6109;SDS011;3085;49.444;11.054;2023-11-21T09:37:15;8.37;;;4.60;;
6109;SDS011;3085;49.444;11.054;2023-11-21T09:39:42;15.37;;;4.93;;
6109;SDS011;3085;49.444;11.054;2023-11-21T09:42:10;8.40;;;4.37;;
6109;SDS011;3085;49.444;11.054;2023-11-21T09:44:43;5.93;;;3.70;;
6109;SDS011;3085;49.444;11.054;2023-11-21T09:47:14;5.00;;;3.53;;
6109;SDS011;3085;49.444;11.054;2023-11-21T09:49:42;8.87;;;4.10;;
6109;SDS011;3085;49.444;11.054;2023-11-21T09:52:15;10.90;;;4.70;;
6109;SDS011;3085;49.444;11.054;2023-11-21T09:54:50;8.30;;;4.40;;
6109;SDS011;3085;49.444;11.054;2023-11-21T09:57:18;6.30;;;3.50;;
6109;SDS011;3085;49.444;11.054;2023-11-21T09:59:47;5.37;;;3.60;;
6109;SDS011;3085;49.444;11.054;2023-11-21T10:02:17;6.70;;;3.33;;
6109;SDS011;3085;49.444;11.054;2023-11-21T10:04:46;6.20;;;3.43;;
6109;SDS011;3085;49.444;11.054;2023-11-21T10:07:14;7.53;;;3.73;;
6109;SDS011;3085;49.444;11.054;2023-11-21T10:09:45;12.13;;;4.40;;
6109;SDS011;3085;49.444;11.054;2023-11-21T10:12:13;9.43;;;4.30;;
6109;SDS011;3085;49.444;11.054;2023-11-21T10:14:41;6.93;;;3.93;;
6109;SDS011;3085;49.444;11.054;2023-11-21T10:17:10;5.83;;;4.20;;
6109;SDS011;3085;49.444;11.054;2023-11-21T10:19:38;7.90;;;4.60;;
6109;SDS011;3085;49.444;11.054;2023-11-21T10:22:05;9.60;;;4.40;;
6109;SDS011;3085;49.444;11.054;2023-11-21T10:24:35;10.10;;;4.20;;
6109;SDS011;3085;49.444;11.054;2023-11-21T10:27:03;8.30;;;4.00;;
6109;SDS011;3085;49.444;11.054;2023-11-21T10:29:30;6.53;;;3.50;;
6109;SDS011;3085;49.444;11.054;2023-11-21T10:32:01;8.63;;;3.23;;
6109;SDS011;3085;49.444;11.054;2023-11-21T10:34:28;6.73;;;3.37;;
6109;SDS011;3085;49.444;11.054;2023-11-21T10:36:55;6.70;;;3.40;;
6109;SDS011;3085;49.444;11.054;2023-11-21T10:39:23;5.80;;;3.97;;
6109;SDS011;3085;49.444;11.054;2023-11-21T10:41:54;8.83;;;4.33;;
6109;SDS011;3085;49.444;11.054;2023-11-21T10:44:21;8.10;;;4.77;;
6109;SDS011;3085;49.444;11.054;2023-11-21T10:46:49;5.53;;;3.50;;
6109;SDS011;3085;49.444;11.054;2023-11-21T10:49:17;9.13;;;4.20;;
6109;SDS011;3085;49.444;11.054;2023-11-21T10:51:44;9.83;;;4.47;;
6109;SDS011;3085;49.444;11.054;2023-11-21T10:54:16;8.20;;;3.83;;
6109;SDS011;3085;49.444;11.054;2023-11-21T10:56:43;7.70;;;4.17;;
6109;SDS011;3085;49.444;11.054;2023-11-21T10:59:13;6.37;;;4.00;;
6109;SDS011;3085;49.444;11.054;2023-11-21T11:01:41;9.87;;;4.57;;
6109;SDS011;3085;49.444;11.054;2023-11-21T11:04:11;8.00;;;4.13;;
6109;SDS011;3085;49.444;11.054;2023-11-21T11:06:41;8.40;;;4.00;;
6109;SDS011;3085;49.444;11.054;2023-11-21T11:09:09;6.23;;;3.57;;
6109;SDS011;3085;49.444;11.054;2023-11-21T11:11:39;7.07;;;4.03;;
6109;SDS011;3085;49.444;11.054;2023-11-21T11:14:09;4.57;;;3.00;;
6109;SDS011;3085;49.444;11.054;2023-11-21T11:16:40;7.20;;;2.77;;
6109;SDS011;3085;49.444;11.054;2023-11-21T11:19:08;4.70;;;2.70;;
6109;SDS011;3085;49.444;11.054;2023-11-21T11:21:41;11.20;;;2.40;;
6109;SDS011;3085;49.444;11.054;2023-11-21T11:24:20;4.33;;;3.27;;
6109;SDS011;3085;49.444;11.054;2023-11-21T11:27:01;3.70;;;2.70;;
6109;SDS011;3085;49.444;11.054;2023-11-21T11:29:39;3.30;;;2.10;;
6109;SDS011;3085;49.444;11.054;2023-11-21T11:32:21;11.90;;;3.57;;
6109;SDS011;3085;49.444;11.054;2023-11-21T11:34:54;13.23;;;3.00;;
6109;SDS011;3085;49.444;11.054;2023-11-21T11:37:25;6.40;;;2.67;;
6109;SDS011;3085;49.444;11.054;2023-11-21T11:39:52;5.00;;;2.77;;
6109;SDS011;3085;49.444;11.054;2023-11-21T11:42:20;3.70;;;2.30;;
6109;SDS011;3085;49.444;11.054;2023-11-21T11:44:50;4.67;;;2.90;;
6109;SDS011;3085;49.444;11.054;2023-11-21T11:47:19;3.93;;;2.87;;
6109;SDS011;3085;49.444;11.054;2023-11-21T11:50:00;4.77;;;3.23;;
6109;SDS011;3085;49.444;11.054;2023-11-21T11:52:38;4.97;;;3.00;;
6109;SDS011;3085;49.444;11.054;2023-11-21T11:55:07;6.20;;;2.63;;
6109;SDS011;3085;49.444;11.054;2023-11-21T11:57:38;6.77;;;2.73;;
6109;SDS011;3085;49.444;11.054;2023-11-21T12:00:12;4.07;;;2.50;;
6109;SDS011;3085;49.444;11.054;2023-11-21T12:02:45;5.03;;;3.10;;
6109;SDS011;3085;49.444;11.054;2023-11-21T12:05:13;12.00;;;3.10;;
6109;SDS011;3085;49.444;11.054;2023-11-21T12:07:42;4.40;;;2.90;;
6109;SDS011;3085;49.444;11.054;2023-11-21T12:10:13;6.77;;;3.10;;
6109;SDS011;3085;49.444;11.054;2023-11-21T12:12:43;5.57;;;3.50;;
6109;SDS011;3085;49.444;11.054;2023-11-21T12:15:11;5.50;;;3.13;;
6109;SDS011;3085;49.444;11.054;2023-11-21T12:17:38;4.93;;;3.30;;
6109;SDS011;3085;49.444;11.054;2023-11-21T12:20:08;7.60;;;3.53;;
6109;SDS011;3085;49.444;11.054;2023-11-21T12:22:40;6.67;;;3.47;;
6109;SDS011;3085;49.444;11.054;2023-11-21T12:25:08;4.63;;;3.20;;
6109;SDS011;3085;49.444;11.054;2023-11-21T12:27:35;7.03;;;4.20;;
6109;SDS011;3085;49.444;11.054;2023-11-21T12:30:02;4.67;;;3.20;;
6109;SDS011;3085;49.444;11.054;2023-11-21T12:32:29;6.47;;;4.00;;
6109;SDS011;3085;49.444;11.054;2023-11-21T12:34:57;8.23;;;3.57;;
6109;SDS011;3085;49.444;11.054;2023-11-21T12:37:25;5.90;;;3.10;;
6109;SDS011;3085;49.444;11.054;2023-11-21T12:39:52;5.53;;;3.50;;
6109;SDS011;3085;49.444;11.054;2023-11-21T12:42:23;6.40;;;4.10;;
6109;SDS011;3085;49.444;11.054;2023-11-21T12:45:05;9.70;;;3.90;;
6109;SDS011;3085;49.444;11.054;2023-11-21T12:47:34;8.00;;;3.70;;
6109;SDS011;3085;49.444;11.054;2023-11-21T12:50:01;6.20;;;3.90;;
6109;SDS011;3085;49.444;11.054;2023-11-21T12:52:32;10.03;;;4.60;;
6109;SDS011;3085;49.444;11.054;2023-11-21T12:54:59;9.47;;;4.30;;
6109;SDS011;3085;49.444;11.054;2023-11-21T12:57:27;6.57;;;4.00;;
6109;SDS011;3085;49.444;11.054;2023-11-21T12:59:56;6.23;;;4.10;;
6109;SDS011;3085;49.444;11.054;2023-11-21T13:02:25;8.10;;;3.93;;
6109;SDS011;3085;49.444;11.054;2023-11-21T13:04:52;4.67;;;3.33;;
6109;SDS011;3085;49.444;11.054;2023-11-21T13:07:19;5.10;;;3.27;;
6109;SDS011;3085;49.444;11.054;2023-11-21T13:09:49;6.80;;;3.70;;
6109;SDS011;3085;49.444;11.054;2023-11-21T13:12:23;6.73;;;3.93;;
6109;SDS011;3085;49.444;11.054;2023-11-21T13:14:50;7.50;;;3.60;;
6109;SDS011;3085;49.444;11.054;2023-11-21T13:17:17;6.37;;;3.60;;
6109;SDS011;3085;49.444;11.054;2023-11-21T13:19:44;6.50;;;4.43;;
6109;SDS011;3085;49.444;11.054;2023-11-21T13:22:11;12.00;;;3.97;;
6109;SDS011;3085;49.444;11.054;2023-11-21T13:24:37;6.53;;;3.10;;
6109;SDS011;3085;49.444;11.054;2023-11-21T13:27:05;8.07;;;3.33;;
6109;SDS011;3085;49.444;11.054;2023-11-21T13:29:32;5.30;;;3.00;;
6109;SDS011;3085;49.444;11.054;2023-11-21T13:32:00;5.00;;;3.37;;
6109;SDS011;3085;49.444;11.054;2023-11-21T13:34:29;5.17;;;3.00;;
6109;SDS011;3085;49.444;11.054;2023-11-21T13:36:57;4.87;;;3.17;;
6109;SDS011;3085;49.444;11.054;2023-11-21T13:39:26;5.23;;;3.50;;
6109;SDS011;3085;49.444;11.054;2023-11-21T13:41:54;5.60;;;3.33;;
6109;SDS011;3085;49.444;11.054;2023-11-21T13:44:23;7.67;;;3.10;;
6109;SDS011;3085;49.444;11.054;2023-11-21T13:46:59;5.23;;;2.70;;
6109;SDS011;3085;49.444;11.054;2023-11-21T13:49:26;4.10;;;2.77;;
6109;SDS011;3085;49.444;11.054;2023-11-21T13:51:51;8.43;;;3.23;;
6109;SDS011;3085;49.444;11.054;2023-11-21T13:54:20;4.23;;;2.77;;
6109;SDS011;3085;49.444;11.054;2023-11-21T13:56:49;3.97;;;2.20;;
6109;SDS011;3085;49.444;11.054;2023-11-21T13:59:15;3.43;;;2.50;;
6109;SDS011;3085;49.444;11.054;2023-11-21T14:01:48;3.13;;;2.20;;
6109;SDS011;3085;49.444;11.054;2023-11-21T14:04:25;6.20;;;2.40;;
6109;SDS011;3085;49.444;11.054;2023-11-21T14:07:11;4.93;;;2.50;;
6109;SDS011;3085;49.444;11.054;2023-11-21T14:09:57;7.47;;;2.53;;
6109;SDS011;3085;49.444;11.054;2023-11-21T14:12:24;4.03;;;2.57;;
6109;SDS011;3085;49.444;11.054;2023-11-21T14:14:50;3.60;;;2.00;;
6109;SDS011;3085;49.444;11.054;2023-11-21T14:17:20;4.00;;;2.40;;
6109;SDS011;3085;49.444;11.054;2023-11-21T14:19:49;5.00;;;2.63;;
6109;SDS011;3085;49.444;11.054;2023-11-21T14:22:16;17.37;;;3.00;;
6109;SDS011;3085;49.444;11.054;2023-11-21T14:24:43;3.83;;;2.20;;
6109;SDS011;3085;49.444;11.054;2023-11-21T14:27:11;3.87;;;1.97;;
6109;SDS011;3085;49.444;11.054;2023-11-21T14:29:39;2.47;;;1.83;;
6109;SDS011;3085;49.444;11.054;2023-11-21T14:32:09;5.43;;;2.33;;
6109;SDS011;3085;49.444;11.054;2023-11-21T14:34:38;2.67;;;1.90;;
6109;SDS011;3085;49.444;11.054;2023-11-21T14:37:05;4.53;;;2.60;;
6109;SDS011;3085;49.444;11.054;2023-11-21T14:39:39;2.67;;;1.90;;
6109;SDS011;3085;49.444;11.054;2023-11-21T14:42:09;4.43;;;2.27;;
6109;SDS011;3085;49.444;11.054;2023-11-21T14:44:36;4.30;;;2.50;;
6109;SDS011;3085;49.444;11.054;2023-11-21T14:47:06;6.53;;;3.00;;
6109;SDS011;3085;49.444;11.054;2023-11-21T14:49:41;4.80;;;2.23;;
6109;SDS011;3085;49.444;11.054;2023-11-21T14:52:17;4.07;;;2.70;;
6109;SDS011;3085;49.444;11.054;2023-11-21T14:54:57;7.20;;;2.37;;
6109;SDS011;3085;49.444;11.054;2023-11-21T14:57:45;8.60;;;2.70;;
6109;SDS011;3085;49.444;11.054;2023-11-21T15:00:15;3.27;;;2.00;;
6109;SDS011;3085;49.444;11.054;2023-11-21T15:03:09;2.20;;;1.80;;
6109;SDS011;3085;49.444;11.054;2023-11-21T15:05:49;4.67;;;2.60;;
6109;SDS011;3085;49.444;11.054;2023-11-21T15:08:15;3.13;;;2.07;;